Time;durP1;ratioP1;P1;durP2;ratioP2;P2;SDS_P1;SDS_P2;PMS_P1;PMS_P2;Temp;Humidity;BMP_temperature;BMP_pressure;BME280_temperature;BME280_humidity;BME280_pressure;Samples;Min_cycle;Max_cycle;Signal;HPM_P1;HPM_P2
2022/03/04 00:02:05;;;;;;;0.50;0.50;;;1.30;99.90;;;-143.19;100.00;53775.09;4937372;28;20208;-65
2022/03/04 00:04:37;;;;;;;0.77;0.77;;;1.30;99.90;;;-143.19;100.00;53775.09;4934882;28;20220;-66
2022/03/04 00:07:06;;;;;;;0.70;0.70;;;1.30;99.90;;;-143.19;100.00;53775.09;4935806;28;20325;-65
2022/03/04 00:09:35;;;;;;;0.60;0.60;;;1.20;99.90;;;-143.19;100.00;53775.09;4933814;28;20209;-65
2022/03/04 00:12:03;;;;;;;0.90;0.90;;;1.20;99.90;;;-143.19;100.00;53775.09;4950358;28;20213;-66
2022/03/04 00:14:31;;;;;;;0.77;0.77;;;1.10;99.90;;;-143.19;100.00;53775.09;4933113;28;20210;-65
2022/03/04 00:16:59;;;;;;;0.70;0.70;;;1.10;99.90;;;-143.19;100.00;53775.09;4930807;28;20229;-65
2022/03/04 00:19:27;;;;;;;0.70;0.70;;;1.20;99.90;;;-143.19;100.00;53775.09;4957288;28;20232;-65
2022/03/04 00:21:55;;;;;;;0.68;0.68;;;1.10;99.90;;;-143.19;100.00;53775.09;4948464;28;20205;-66
2022/03/04 00:24:23;;;;;;;1.00;1.00;;;1.00;99.90;;;-143.19;100.00;53775.09;4918017;28;20649;-66
2022/03/04 00:26:51;;;;;;;1.30;1.20;;;1.00;99.90;;;-143.19;100.00;53775.09;4938083;28;20216;-66
2022/03/04 00:29:19;;;;;;;0.70;0.70;;;1.00;99.90;;;-143.19;100.00;53775.09;4933915;28;20214;-66
2022/03/04 00:31:47;;;;;;;0.88;0.88;;;1.00;99.90;;;-143.19;100.00;53775.09;4945439;28;20209;-65
2022/03/04 00:34:15;;;;;;;0.90;0.90;;;1.10;99.90;;;-143.19;100.00;53775.09;4917090;28;20196;-66
2022/03/04 00:36:44;;;;;;;0.98;0.98;;;1.10;99.90;;;-143.19;100.00;53775.09;4911915;28;20241;-66
2022/03/04 00:39:14;;;;;;;0.95;0.95;;;1.00;99.90;;;-143.19;100.00;53775.09;4930863;28;20231;-66
2022/03/04 00:41:42;;;;;;;1.10;1.10;;;1.00;99.90;;;-143.19;100.00;53775.09;4940533;28;20218;-66
2022/03/04 00:44:11;;;;;;;0.70;0.70;;;1.00;99.90;;;-143.19;100.00;53775.09;4940345;28;20205;-65
2022/03/04 00:46:39;;;;;;;0.60;0.60;;;1.10;99.90;;;-143.19;100.00;53775.09;4935529;28;20225;-65
2022/03/04 00:49:07;;;;;;;0.50;0.50;;;1.00;99.90;;;-143.19;100.00;53775.09;4940595;28;20209;-65
2022/03/04 00:51:35;;;;;;;0.70;0.70;;;1.00;99.90;;;-143.19;100.00;53775.09;4948251;28;20213;-65
2022/03/04 00:54:03;;;;;;;1.17;1.17;;;0.90;99.90;;;-143.19;100.00;53775.09;4970538;28;20217;-66
2022/03/04 00:56:31;;;;;;;0.80;0.80;;;1.40;99.90;;;-143.19;100.00;53775.09;4974457;28;20752;-66
2022/03/04 00:58:59;;;;;;;0.68;0.68;;;0.90;99.90;;;-143.19;100.00;53775.09;4926634;28;20240;-66
2022/03/04 01:01:27;;;;;;;1.08;1.08;;;1.00;99.90;;;-143.19;100.00;53775.09;4913970;28;20212;-66
2022/03/04 01:03:55;;;;;;;0.60;0.60;;;1.00;99.90;;;-143.19;100.00;53775.09;4938310;28;20197;-65
2022/03/04 01:06:23;;;;;;;0.73;0.73;;;0.90;99.90;;;-143.19;100.00;53775.09;4949742;28;20233;-65
2022/03/04 01:08:51;;;;;;;0.77;0.77;;;0.80;99.90;;;-143.19;100.00;53775.09;4954295;28;20210;-66
2022/03/04 01:11:20;;;;;;;0.60;0.60;;;0.90;99.90;;;-143.19;100.00;53775.09;4965523;28;20241;-65
2022/03/04 01:13:48;;;;;;;0.98;0.98;;;0.90;99.90;;;-143.19;100.00;53775.09;4929900;28;20216;-65
2022/03/04 01:16:16;;;;;;;0.73;0.73;;;0.90;99.90;;;-143.19;100.00;53775.09;4938011;28;20230;-65
2022/03/04 01:18:44;;;;;;;1.00;1.00;;;0.90;99.90;;;-143.19;100.00;53775.09;4956804;28;20255;-65
2022/03/04 01:21:12;;;;;;;1.08;1.08;;;0.90;99.90;;;-143.19;100.00;53775.09;4951045;28;20225;-66
2022/03/04 01:23:40;;;;;;;1.33;1.23;;;0.90;99.90;;;-143.19;100.00;53775.09;4949306;28;20213;-65
2022/03/04 01:26:08;;;;;;;0.50;0.50;;;1.00;99.90;;;-143.19;100.00;53775.09;4919970;28;20221;-66
2022/03/04 01:28:36;;;;;;;0.95;0.95;;;1.00;99.90;;;-143.19;100.00;53775.09;4949083;28;20213;-67
2022/03/04 01:31:04;;;;;;;0.80;0.80;;;0.80;99.90;;;-143.19;100.00;53775.09;4937343;28;20202;-65
2022/03/04 01:33:32;;;;;;;0.70;0.70;;;0.90;99.90;;;-143.19;100.00;53775.09;4961412;28;20240;-65
2022/03/04 01:36:01;;;;;;;0.90;0.90;;;0.80;99.90;;;-143.19;100.00;53775.09;4927602;28;20237;-65
2022/03/04 01:38:28;;;;;;;0.70;0.70;;;0.70;99.90;;;-143.19;100.00;53775.09;4949157;28;20248;-65
2022/03/04 01:40:57;;;;;;;0.60;0.60;;;0.70;99.90;;;-143.19;100.00;53775.09;4926505;28;20213;-65
2022/03/04 01:43:25;;;;;;;0.75;0.75;;;0.80;99.90;;;-143.19;100.00;53775.09;4924948;28;20196;-65
2022/03/04 01:45:53;;;;;;;0.55;0.55;;;0.60;99.90;;;-143.19;100.00;53775.09;4966959;28;20240;-65
2022/03/04 01:48:22;;;;;;;0.68;0.68;;;0.50;99.90;;;-143.19;100.00;53775.09;4948133;28;20209;-65
2022/03/04 01:50:52;;;;;;;0.80;0.80;;;0.50;99.90;;;-143.19;100.00;53775.09;4951800;28;20225;-65
2022/03/04 01:53:21;;;;;;;1.23;1.13;;;0.40;99.90;;;-143.19;100.00;53775.09;4951904;28;20214;-66
2022/03/04 01:55:49;;;;;;;0.80;0.80;;;0.30;99.90;;;-143.19;100.00;53775.09;4925880;28;20358;-66
2022/03/04 01:58:17;;;;;;;0.68;0.68;;;0.80;99.90;;;-143.19;100.00;53775.09;4919406;29;20288;-66
2022/03/04 02:00:45;;;;;;;0.90;0.90;;;0.30;99.90;;;-143.19;100.00;53775.09;4921011;28;20197;-65
2022/03/04 02:03:13;;;;;;;1.00;1.00;;;0.30;99.90;;;-143.19;100.00;53775.09;4952112;28;20214;-65
2022/03/04 02:05:41;;;;;;;0.73;0.73;;;0.20;99.90;;;-143.19;100.00;53775.09;4955121;28;20722;-65
2022/03/04 02:08:09;;;;;;;0.60;0.60;;;0.20;99.90;;;-143.19;100.00;53775.09;4956947;28;20201;-65
2022/03/04 02:10:37;;;;;;;6.15;1.98;;;0.10;99.90;;;-143.19;100.00;53775.09;4916856;28;20218;-65
2022/03/04 02:13:05;;;;;;;1.08;1.08;;;0.60;99.90;;;-143.19;100.00;53775.09;4942090;28;20224;-65
2022/03/04 02:15:33;;;;;;;0.90;0.90;;;0.10;99.90;;;-143.19;100.00;53775.09;4972605;28;20248;-65
2022/03/04 02:18:13;;;;;;;0.90;0.90;;;0.10;99.90;;;-143.19;100.00;53775.09;4968214;28;20216;-65
2022/03/04 02:20:47;;;;;;;0.70;0.70;;;0.10;99.90;;;-143.19;100.00;53775.09;4945237;28;20305;-65
2022/03/04 02:23:17;;;;;;;0.90;0.90;;;0.10;99.90;;;-143.19;100.00;53775.09;4932943;28;20200;-66
2022/03/04 02:25:51;;;;;;;1.30;1.20;;;0.10;99.90;;;-143.19;100.00;53775.09;4952060;28;20225;-66
2022/03/04 02:28:21;;;;;;;1.15;1.10;;;0.10;99.90;;;-143.19;100.00;53775.09;4954612;28;20204;-66
2022/03/04 02:30:49;;;;;;;0.70;0.70;;;0.10;99.90;;;-143.19;100.00;53775.09;4971027;28;20997;-66
2022/03/04 02:33:17;;;;;;;1.15;1.08;;;0.50;99.90;;;-143.19;100.00;53775.09;4914888;28;20250;-66
2022/03/04 02:35:45;;;;;;;0.98;0.98;;;0.30;99.90;;;-143.19;100.00;53775.09;4958217;28;20233;-66
2022/03/04 02:38:13;;;;;;;0.93;0.93;;;0.00;99.90;;;-143.19;100.00;53775.09;4933551;28;20213;-65
2022/03/04 02:40:41;;;;;;;1.48;1.38;;;0.00;99.90;;;-143.19;100.00;53775.09;4933443;28;20260;-65
2022/03/04 02:43:10;;;;;;;1.13;1.10;;;0.00;99.90;;;-143.19;100.00;53775.09;4946893;28;20205;-65
2022/03/04 02:45:38;;;;;;;1.35;1.25;;;0.00;99.90;;;-143.19;100.00;53775.09;4932560;28;20221;-65
2022/03/04 02:48:06;;;;;;;1.35;1.25;;;0.00;99.90;;;-143.19;100.00;53775.09;4926852;28;20220;-66
2022/03/04 02:50:35;;;;;;;1.48;1.38;;;0.00;99.90;;;-143.19;100.00;53775.09;4909068;28;20205;-65
2022/03/04 02:53:03;;;;;;;1.85;1.75;;;0.00;99.90;;;-143.19;100.00;53775.09;4936872;28;20209;-65
2022/03/04 02:55:31;;;;;;;1.50;1.40;;;0.00;99.90;;;-143.19;100.00;53775.09;4936794;28;20240;-65
2022/03/04 02:57:59;;;;;;;1.40;1.30;;;0.00;99.90;;;-143.19;100.00;53775.09;4914277;28;20209;-66
2022/03/04 03:00:27;;;;;;;1.35;1.25;;;0.00;99.90;;;-143.19;100.00;53775.09;4939273;28;20220;-65
2022/03/04 03:02:56;;;;;;;1.42;1.33;;;0.00;99.90;;;-143.19;100.00;53775.09;4942397;28;20201;-65
2022/03/04 03:05:24;;;;;;;0.70;0.70;;;0.00;99.90;;;-143.19;100.00;53775.09;4932907;28;20225;-65
2022/03/04 03:07:52;;;;;;;1.48;1.38;;;0.00;99.90;;;-143.19;100.00;53775.09;4953279;28;20213;-66
2022/03/04 03:10:20;;;;;;;0.95;0.95;;;0.00;99.90;;;-143.19;100.00;53775.09;4957789;28;20212;-65
2022/03/04 03:12:48;;;;;;;0.90;0.90;;;0.00;99.90;;;-143.19;100.00;53775.09;4964791;28;20205;-65
2022/03/04 03:15:17;;;;;;;0.90;0.90;;;0.00;99.90;;;-143.19;100.00;53775.09;4947862;28;20240;-65
2022/03/04 03:17:45;;;;;;;1.00;1.00;;;0.00;99.90;;;-143.19;100.00;53775.09;4950765;28;20228;-65
2022/03/04 03:20:13;;;;;;;1.35;1.25;;;-0.10;99.90;;;-143.19;100.00;53775.09;4942717;28;20237;-66
2022/03/04 03:22:41;;;;;;;1.27;1.17;;;-0.10;99.90;;;-143.19;100.00;53775.09;4946625;28;20299;-65
2022/03/04 03:25:09;;;;;;;0.80;0.80;;;-0.10;99.90;;;-143.19;100.00;53775.09;4959703;28;20225;-65
2022/03/04 03:27:40;;;;;;;0.90;0.90;;;-0.10;99.90;;;-143.19;100.00;53775.09;4945336;28;20205;-66
2022/03/04 03:30:09;;;;;;;1.40;1.30;;;-0.10;99.90;;;-143.19;100.00;53775.09;4938886;28;20214;-66
2022/03/04 03:32:38;;;;;;;1.17;1.13;;;-0.10;99.90;;;-143.19;100.00;53775.09;4977413;28;20231;-65
2022/03/04 03:35:08;;;;;;;0.82;0.82;;;-0.10;99.90;;;-143.19;100.00;53775.09;4912988;29;20581;-65
2022/03/04 03:37:37;;;;;;;1.00;1.00;;;-0.20;99.90;;;-143.19;100.00;53775.09;4913551;28;20210;-66
2022/03/04 03:40:09;;;;;;;0.85;0.85;;;-0.20;99.90;;;-143.19;100.00;53775.09;4914056;28;20225;-65
2022/03/04 03:42:38;;;;;;;1.42;1.33;;;-0.20;99.90;;;-143.19;100.00;53775.09;4928770;28;20198;-66
2022/03/04 03:45:09;;;;;;;1.15;1.08;;;-0.30;99.90;;;-143.19;100.00;53775.09;4924075;28;20695;-65
2022/03/04 03:47:39;;;;;;;1.02;1.00;;;-0.20;99.90;;;-143.19;100.00;53775.09;4932634;28;20209;-65
2022/03/04 03:50:10;;;;;;;1.27;1.17;;;-0.20;99.90;;;-143.19;100.00;53775.09;4913710;28;20217;-65
2022/03/04 03:52:39;;;;;;;2.85;2.70;;;-0.20;99.90;;;-143.19;100.00;53775.09;4913170;28;20217;-65
2022/03/04 03:55:08;;;;;;;1.67;1.58;;;-0.30;99.90;;;-143.19;100.00;53775.09;4892673;28;20234;-66
2022/03/04 03:57:36;;;;;;;1.85;1.75;;;-0.30;99.90;;;-143.19;100.00;53775.09;4941333;28;20214;-66
2022/03/04 04:00:06;;;;;;;1.10;1.10;;;-0.20;99.90;;;-143.19;100.00;53775.09;4913012;28;20222;-65
2022/03/04 04:02:39;;;;;;;0.90;0.90;;;-0.30;99.90;;;-143.19;100.00;53775.09;4899045;28;20210;-66
2022/03/04 04:05:14;;;;;;;1.58;1.48;;;-0.30;99.90;;;-143.19;100.00;53775.09;4929946;28;20233;-65
2022/03/04 04:07:42;;;;;;;1.35;1.25;;;-0.30;99.90;;;-143.19;100.00;53775.09;4895269;28;20732;-65
2022/03/04 04:10:10;;;;;;;1.60;1.50;;;-0.30;99.90;;;-143.19;100.00;53775.09;4908528;28;20209;-65
2022/03/04 04:12:38;;;;;;;1.23;1.13;;;-0.30;99.90;;;-143.19;100.00;53775.09;4921270;28;20221;-65
2022/03/04 04:15:07;;;;;;;1.10;1.05;;;-0.30;99.90;;;-143.19;100.00;53775.09;4898394;28;20232;-66
2022/03/04 04:17:35;;;;;;;1.60;1.50;;;-0.30;99.90;;;-143.19;100.00;53775.09;4911293;28;20228;-65
2022/03/04 04:20:03;;;;;;;1.23;1.13;;;-0.30;99.90;;;-143.19;100.00;53775.09;4921483;28;20234;-65
2022/03/04 04:22:32;;;;;;;1.30;1.20;;;-0.40;99.90;;;-143.19;100.00;53775.09;4911408;28;20214;-66
2022/03/04 04:25:00;;;;;;;1.35;1.25;;;-0.30;99.90;;;-143.19;100.00;53775.09;4923155;28;20216;-66
2022/03/04 04:27:28;;;;;;;1.58;1.48;;;-0.30;99.90;;;-143.19;100.00;53775.09;4947353;28;20209;-67
2022/03/04 04:29:56;;;;;;;1.38;1.27;;;-0.40;99.90;;;-143.19;100.00;53775.09;4917955;28;20202;-66
2022/03/04 04:32:24;;;;;;;1.08;1.02;;;-0.40;99.90;;;-143.19;100.00;53775.09;4932250;28;20213;-66
2022/03/04 04:34:52;;;;;;;1.30;1.20;;;-0.40;99.90;;;-143.19;100.00;53775.09;4902004;28;20214;-65
2022/03/04 04:37:20;;;;;;;1.55;1.45;;;-0.40;99.90;;;-143.19;100.00;53775.09;4924057;28;20221;-66
2022/03/04 04:39:48;;;;;;;1.30;1.20;;;-0.50;99.90;;;-143.19;100.00;53775.09;4921339;28;20224;-65
2022/03/04 04:42:16;;;;;;;0.88;0.88;;;-0.50;99.90;;;-143.19;100.00;53775.09;4936524;28;20582;-65
2022/03/04 04:44:44;;;;;;;0.70;0.70;;;-0.50;99.90;;;-143.19;100.00;53775.09;4950109;28;20216;-65
2022/03/04 04:47:12;;;;;;;1.58;1.48;;;-0.50;99.90;;;-143.19;100.00;53775.09;4947752;28;20204;-66
2022/03/04 04:49:40;;;;;;;1.20;1.10;;;-0.50;99.90;;;-143.19;100.00;53775.09;4947884;28;20206;-65
2022/03/04 04:52:09;;;;;;;1.00;1.00;;;-0.50;99.90;;;-143.19;100.00;53775.09;4938419;28;20225;-66
2022/03/04 04:54:37;;;;;;;1.20;1.10;;;-0.50;99.90;;;-143.19;100.00;53775.09;4921207;28;20247;-66
2022/03/04 04:57:05;;;;;;;1.27;1.20;;;-0.50;99.90;;;-143.19;100.00;53775.09;4951492;28;20225;-66
2022/03/04 04:59:34;;;;;;;1.02;1.02;;;-0.50;99.90;;;-143.19;100.00;53775.09;4929643;28;20213;-65
2022/03/04 05:02:02;;;;;;;1.27;1.17;;;-0.50;99.90;;;-143.19;100.00;53775.09;4933649;28;20240;-66
2022/03/04 05:04:30;;;;;;;0.85;0.85;;;-0.50;99.90;;;-143.19;100.00;53775.09;4935245;28;20212;-64
2022/03/04 05:06:59;;;;;;;1.38;1.27;;;-0.60;99.90;;;-143.19;100.00;53775.09;4951347;28;20229;-65
2022/03/04 05:09:27;;;;;;;1.50;1.40;;;-0.60;99.90;;;-143.19;100.00;53775.09;4941615;28;20208;-65
2022/03/04 05:11:55;;;;;;;0.88;0.88;;;-0.60;99.90;;;-143.19;100.00;53775.09;4920337;28;20213;-65
2022/03/04 05:14:23;;;;;;;1.65;1.55;;;-0.60;99.90;;;-143.19;100.00;53775.09;4947003;28;20212;-65
2022/03/04 05:16:52;;;;;;;1.02;1.02;;;-0.70;99.90;;;-143.19;100.00;53775.09;4939284;28;20243;-66
2022/03/04 05:19:20;;;;;;;1.30;1.20;;;-0.70;99.90;;;-143.19;100.00;53775.09;4915867;28;20220;-65
2022/03/04 05:21:49;;;;;;;1.00;1.00;;;-0.70;99.90;;;-143.19;100.00;53775.09;4963438;28;20233;-65
2022/03/04 05:24:17;;;;;;;1.23;1.13;;;-0.80;99.90;;;-143.19;100.00;53775.09;4922570;28;20213;-65
2022/03/04 05:26:45;;;;;;;1.27;1.17;;;-0.80;99.90;;;-143.19;100.00;53775.09;4901030;28;20221;-66
2022/03/04 05:29:13;;;;;;;1.50;1.40;;;-0.70;99.90;;;-143.19;100.00;53775.09;4937482;28;20205;-66
2022/03/04 05:31:43;;;;;;;1.30;1.20;;;-0.70;99.90;;;-143.19;100.00;53775.09;4902424;28;20205;-65
2022/03/04 05:34:12;;;;;;;0.60;0.60;;;-0.70;99.90;;;-143.19;100.00;53775.09;4907573;28;20200;-65
2022/03/04 05:36:41;;;;;;;0.65;0.65;;;-0.70;99.90;;;-143.19;100.00;53775.09;4922170;28;20241;-65
2022/03/04 05:39:09;;;;;;;1.67;1.58;;;-0.80;99.90;;;-143.19;100.00;53775.09;4937595;28;20206;-65
2022/03/04 05:41:37;;;;;;;0.82;0.82;;;-0.80;99.90;;;-143.19;100.00;53775.09;4956985;28;20724;-65
2022/03/04 05:44:06;;;;;;;0.85;0.85;;;-0.80;99.90;;;-143.19;100.00;53775.09;4939821;28;20212;-65
2022/03/04 05:46:34;;;;;;;1.13;1.02;;;-0.90;99.90;;;-143.19;100.00;53775.09;4950864;28;20230;-65
2022/03/04 05:49:03;;;;;;;1.02;0.93;;;-0.90;99.90;;;-143.19;100.00;53775.09;4933829;29;20209;-65
2022/03/04 05:51:32;;;;;;;0.70;0.70;;;-0.90;99.90;;;-143.19;100.00;53775.09;4963033;28;20224;-65
2022/03/04 05:54:00;;;;;;;1.17;1.08;;;-0.90;99.90;;;-143.19;100.00;53775.09;4968874;28;20216;-66
2022/03/04 05:56:29;;;;;;;1.10;1.00;;;-0.90;99.90;;;-143.19;100.00;53775.09;4912690;29;20217;-65
2022/03/04 05:58:57;;;;;;;0.90;0.90;;;-0.90;99.90;;;-143.19;100.00;53775.09;4917891;28;20214;-65
2022/03/04 06:01:25;;;;;;;1.20;1.10;;;-1.00;99.90;;;-143.19;100.00;53775.09;4919171;28;20232;-65
2022/03/04 06:03:53;;;;;;;0.60;0.60;;;-0.90;99.90;;;-143.19;100.00;53775.09;4924291;28;20213;-65
2022/03/04 06:06:21;;;;;;;1.52;1.42;;;-1.00;99.90;;;-143.19;100.00;53775.09;4927441;28;20224;-65
2022/03/04 06:08:50;;;;;;;1.40;1.30;;;-1.00;99.90;;;-143.19;100.00;53775.09;4946639;28;20337;-65
2022/03/04 06:11:19;;;;;;;1.00;0.90;;;-1.00;99.90;;;-143.19;100.00;53775.09;4926243;28;20209;-65
2022/03/04 06:13:47;;;;;;;0.75;0.75;;;-1.00;99.90;;;-143.19;100.00;53775.09;4955846;28;20213;-65
2022/03/04 06:16:15;;;;;;;1.20;1.10;;;-1.00;99.90;;;-143.19;100.00;53775.09;4916434;28;20594;-65
2022/03/04 06:18:43;;;;;;;1.20;1.10;;;-1.00;99.90;;;-143.19;100.00;53775.09;4920524;28;20232;-65
2022/03/04 06:21:11;;;;;;;1.20;1.10;;;-1.00;99.90;;;-143.19;100.00;53775.09;4953460;28;20229;-65
2022/03/04 06:23:39;;;;;;;0.85;0.85;;;-1.00;99.90;;;-143.19;100.00;53775.09;4957413;28;20201;-65
2022/03/04 06:26:08;;;;;;;1.10;1.00;;;-1.00;99.90;;;-143.19;100.00;53775.09;4942517;28;20220;-65
2022/03/04 06:28:36;;;;;;;0.52;0.52;;;-1.00;99.90;;;-143.19;100.00;53775.09;4925476;28;20209;-65
2022/03/04 06:31:05;;;;;;;1.02;0.98;;;-1.00;99.90;;;-143.19;100.00;53775.09;4937118;29;20221;-66
2022/03/04 06:33:33;;;;;;;1.10;1.00;;;-1.00;99.90;;;-143.19;100.00;53775.09;4970333;28;20217;-65
2022/03/04 06:36:09;;;;;;;0.80;0.80;;;-1.00;99.90;;;-143.19;100.00;53775.09;4955550;28;20236;-64
2022/03/04 06:38:41;;;;;;;0.90;0.90;;;-1.00;99.90;;;-143.19;100.00;53775.09;4924386;28;20213;-64
2022/03/04 06:41:11;;;;;;;1.20;1.10;;;-0.90;99.90;;;-143.19;100.00;53775.09;4950195;28;20218;-65
2022/03/04 06:43:39;;;;;;;0.60;0.60;;;-0.90;99.90;;;-143.19;100.00;53775.09;4941167;28;20209;-65
2022/03/04 06:46:09;;;;;;;0.70;0.70;;;-0.90;99.90;;;-143.19;100.00;53775.09;4941035;28;20228;-65
2022/03/04 06:48:38;;;;;;;1.48;1.38;;;-0.80;99.90;;;-143.19;100.00;53775.09;4946718;28;20209;-64
2022/03/04 06:51:06;;;;;;;3.05;2.85;;;-0.80;99.90;;;-143.19;100.00;53775.09;4901195;28;20677;-65
2022/03/04 06:53:34;;;;;;;1.05;0.95;;;-0.80;99.90;;;-143.19;100.00;53775.09;4921997;28;20220;-65
2022/03/04 06:56:03;;;;;;;0.60;0.60;;;-0.70;99.90;;;-143.19;100.00;53775.09;4937535;28;20216;-66
2022/03/04 06:58:31;;;;;;;8.38;2.83;;;-0.60;99.90;;;-143.19;100.00;53775.09;4948457;22;20208;-67
2022/03/04 07:00:59;;;;;;;0.90;0.90;;;-0.60;99.90;;;-143.19;100.00;53775.09;4940728;28;20628;-66
2022/03/04 07:03:28;;;;;;;0.90;0.90;;;-0.70;99.90;;;-143.19;100.00;53775.09;4941482;28;20207;-67
2022/03/04 07:05:56;;;;;;;0.95;0.95;;;-0.60;99.90;;;-143.19;100.00;53775.09;4977225;28;20204;-67
2022/03/04 07:08:24;;;;;;;1.13;1.02;;;-0.60;99.90;;;-143.19;100.00;53775.09;4958981;28;20200;-66
2022/03/04 07:10:52;;;;;;;1.20;1.10;;;-0.60;99.90;;;-143.19;100.00;53775.09;4935758;28;20214;-67
2022/03/04 07:13:21;;;;;;;2.03;1.88;;;-0.50;99.90;;;-143.19;100.00;53775.09;4922723;28;20216;-67
2022/03/04 07:15:51;;;;;;;1.15;1.05;;;-0.50;99.90;;;-143.19;100.00;53775.09;4958976;28;20217;-66
2022/03/04 07:18:20;;;;;;;1.10;1.08;;;-0.50;99.90;;;-143.19;100.00;53775.09;4941395;28;20217;-66
2022/03/04 07:20:50;;;;;;;0.80;0.80;;;-0.50;99.90;;;-143.19;100.00;53775.09;4913588;28;20213;-67
2022/03/04 07:23:20;;;;;;;5.03;2.25;;;-0.40;99.90;;;-143.19;100.00;53775.09;4930009;28;20233;-66
2022/03/04 07:25:49;;;;;;;2.13;2.03;;;-0.40;99.90;;;-143.19;100.00;53775.09;4912675;29;20218;-66
2022/03/04 07:28:17;;;;;;;1.58;1.48;;;-0.30;99.90;;;-143.19;100.00;53775.09;4942070;28;20208;-68
2022/03/04 07:30:46;;;;;;;0.60;0.60;;;-0.20;99.90;;;-143.19;100.00;53775.09;4947397;28;20206;-66
2022/03/04 07:33:14;;;;;;;0.88;0.88;;;-0.10;99.90;;;-143.19;100.00;53775.09;4956116;28;20209;-66
2022/03/04 07:35:45;;;;;;;1.67;1.58;;;-0.10;99.90;;;-143.19;100.00;53775.09;4954348;28;20208;-67
2022/03/04 07:38:14;;;;;;;1.40;1.30;;;0.00;99.90;;;-143.19;100.00;53775.09;4930956;28;20720;-67
2022/03/04 07:40:45;;;;;;;1.70;1.60;;;0.00;99.90;;;-143.19;100.00;53775.09;4929828;28;20209;-66
2022/03/04 07:43:13;;;;;;;1.40;1.30;;;0.00;99.90;;;-143.19;100.00;53775.09;4909347;28;20229;-66
2022/03/04 07:45:41;;;;;;;0.77;0.77;;;0.10;99.90;;;-143.19;100.00;53775.09;4953369;28;20217;-66
2022/03/04 07:48:09;;;;;;;0.80;0.80;;;0.10;99.90;;;-143.19;100.00;53775.09;4916829;28;20462;-65
2022/03/04 07:50:37;;;;;;;0.85;0.85;;;0.10;99.90;;;-143.19;100.00;53775.09;4933995;28;20225;-67
2022/03/04 07:53:05;;;;;;;0.77;0.77;;;0.20;99.90;;;-143.19;100.00;53775.09;4917449;28;20228;-66
2022/03/04 07:55:34;;;;;;;0.70;0.70;;;0.30;99.90;;;-143.19;100.00;53775.09;4930947;28;20712;-67
2022/03/04 07:58:02;;;;;;;1.08;1.02;;;0.40;99.90;;;-143.19;100.00;53775.09;4933311;28;20553;-66
2022/03/04 08:00:30;;;;;;;0.80;0.80;;;0.40;99.90;;;-143.19;100.00;53775.09;4922240;28;20238;-65
2022/03/04 08:02:59;;;;;;;0.70;0.70;;;0.60;99.90;;;-143.19;100.00;53775.09;4930135;28;20237;-66
2022/03/04 08:05:27;;;;;;;1.00;1.00;;;0.60;99.90;;;-143.19;100.00;53775.09;4928297;28;20213;-66
2022/03/04 08:07:55;;;;;;;0.80;0.80;;;0.80;99.90;;;-143.19;100.00;53775.09;4959464;28;20217;-66
2022/03/04 08:10:23;;;;;;;0.95;0.95;;;0.80;99.90;;;-143.19;100.00;53775.09;4950977;28;20232;-66
2022/03/04 08:12:52;;;;;;;0.82;0.82;;;0.80;99.90;;;-143.19;100.00;53775.09;4918081;28;20220;-66
2022/03/04 08:15:20;;;;;;;0.93;0.93;;;0.80;99.90;;;-143.19;100.00;53775.09;4951710;28;20224;-66
2022/03/04 08:17:48;;;;;;;0.85;0.85;;;1.00;99.90;;;-143.19;100.00;53775.09;4914045;28;20217;-66
2022/03/04 08:20:17;;;;;;;0.57;0.57;;;1.10;99.90;;;-143.19;100.00;53775.09;4934471;28;20233;-66
2022/03/04 08:22:46;;;;;;;1.40;1.30;;;1.20;99.90;;;-143.19;100.00;53775.09;4928546;28;20222;-66
2022/03/04 08:25:15;;;;;;;1.30;1.20;;;1.20;99.90;;;-143.19;100.00;53775.09;4913655;28;20209;-67
2022/03/04 08:27:43;;;;;;;0.85;0.85;;;1.30;99.90;;;-143.19;100.00;53775.09;4945280;28;20590;-66
2022/03/04 08:30:13;;;;;;;1.52;1.42;;;1.30;99.90;;;-143.19;100.00;53775.09;4930742;28;20241;-66
2022/03/04 08:32:41;;;;;;;1.00;1.00;;;1.30;99.90;;;-143.19;100.00;53775.09;4929040;28;20217;-66
2022/03/04 08:35:10;;;;;;;0.90;0.90;;;1.40;99.90;;;-143.19;100.00;53775.09;4928145;28;20233;-66
2022/03/04 08:37:39;;;;;;;1.23;1.23;;;1.50;99.90;;;-143.19;100.00;53775.09;4931169;28;20217;-66
2022/03/04 08:40:10;;;;;;;1.27;1.17;;;1.60;99.90;;;-143.19;100.00;53775.09;4945947;28;20232;-67
2022/03/04 08:42:40;;;;;;;1.17;1.08;;;1.60;99.90;;;-143.19;100.00;53775.09;4945611;28;20673;-67
2022/03/04 08:45:11;;;;;;;0.90;0.90;;;1.70;99.90;;;-143.19;100.00;53775.09;4946794;28;20221;-66
2022/03/04 08:47:46;;;;;;;0.95;0.95;;;1.80;99.90;;;-143.19;100.00;53775.09;4930072;28;20205;-66
2022/03/04 08:50:16;;;;;;;1.30;1.20;;;1.80;99.90;;;-143.19;100.00;53775.09;4959169;28;20244;-66
2022/03/04 08:52:44;;;;;;;0.98;0.98;;;1.90;99.90;;;-143.19;100.00;53775.09;4929980;28;20210;-66
2022/03/04 08:55:16;;;;;;;1.02;1.02;;;2.00;99.90;;;-143.19;100.00;53775.09;4949777;28;20209;-66
2022/03/04 08:57:46;;;;;;;0.80;0.80;;;2.10;99.90;;;-143.19;100.00;53775.09;4933044;28;20210;-67
2022/03/04 09:00:16;;;;;;;0.70;0.70;;;2.10;99.90;;;-143.19;100.00;53775.09;4915465;28;20237;-66
2022/03/04 09:02:46;;;;;;;0.73;0.73;;;2.20;99.90;;;-143.19;100.00;53775.09;4925217;28;20229;-66
2022/03/04 09:05:14;;;;;;;0.70;0.70;;;2.30;99.90;;;-143.19;100.00;53775.09;4935203;28;20674;-66
2022/03/04 09:07:42;;;;;;;0.80;0.80;;;2.40;99.90;;;-143.19;100.00;53775.09;4934766;28;20206;-67
2022/03/04 09:10:11;;;;;;;0.60;0.60;;;2.50;99.90;;;-143.19;100.00;53775.09;4918877;28;20218;-67
2022/03/04 09:12:39;;;;;;;0.70;0.70;;;2.50;99.90;;;-143.19;100.00;53775.09;4927590;28;20674;-66
2022/03/04 09:15:08;;;;;;;0.68;0.68;;;2.60;99.90;;;-143.19;100.00;53775.09;4944900;28;20217;-66
2022/03/04 09:17:37;;;;;;;0.70;0.70;;;2.70;99.90;;;-143.19;100.00;53775.09;4945658;28;20206;-66
2022/03/04 09:20:06;;;;;;;0.90;0.90;;;2.70;99.90;;;-143.19;100.00;53775.09;4928299;28;20237;-66
2022/03/04 09:22:34;;;;;;;0.70;0.70;;;2.80;99.90;;;-143.19;100.00;53775.09;4919360;28;20226;-66
2022/03/04 09:25:03;;;;;;;0.80;0.80;;;2.80;99.90;;;-143.19;100.00;53775.09;4955144;28;20213;-66
2022/03/04 09:27:31;;;;;;;0.82;0.82;;;3.00;99.90;;;-143.19;100.00;53775.09;4927417;28;20209;-66
2022/03/04 09:29:59;;;;;;;1.63;1.58;;;3.00;99.90;;;-143.19;100.00;53775.09;4916985;28;20232;-66
2022/03/04 09:32:28;;;;;;;0.70;0.70;;;3.10;99.90;;;-143.19;100.00;53775.09;4917496;28;20209;-66
2022/03/04 09:34:56;;;;;;;0.75;0.75;;;3.20;99.90;;;-143.19;100.00;53775.09;4929038;28;20214;-66
2022/03/04 09:37:25;;;;;;;1.10;1.08;;;3.30;99.90;;;-143.19;100.00;53775.09;4935396;28;20209;-67
2022/03/04 09:39:55;;;;;;;0.63;0.63;;;3.40;99.90;;;-143.19;100.00;53775.09;4917499;29;20233;-66
2022/03/04 09:42:24;;;;;;;0.40;0.40;;;3.50;99.90;;;-143.19;100.00;53775.09;4922797;28;20212;-67
2022/03/04 09:44:53;;;;;;;0.70;0.70;;;3.60;99.90;;;-143.19;100.00;53775.09;4906416;28;20209;-67
2022/03/04 09:47:24;;;;;;;0.90;0.90;;;3.70;99.90;;;-143.19;100.00;53775.09;4918747;28;20201;-67
2022/03/04 09:49:54;;;;;;;0.73;0.73;;;3.80;99.90;;;-143.19;100.00;53775.09;4897502;28;20224;-67
2022/03/04 09:52:22;;;;;;;0.70;0.70;;;3.90;99.90;;;-143.19;100.00;53775.09;4916090;28;20206;-67
2022/03/04 09:54:52;;;;;;;0.60;0.60;;;4.00;99.90;;;-143.19;100.00;53775.09;4934029;28;20214;-67
2022/03/04 09:57:22;;;;;;;0.85;0.85;;;4.10;99.90;;;-143.19;100.00;53775.09;4920425;28;20205;-67
2022/03/04 09:59:51;;;;;;;0.63;0.63;;;4.20;99.90;;;-143.19;100.00;53775.09;4902036;29;20249;-67
2022/03/04 10:02:20;;;;;;;0.70;0.70;;;4.30;99.90;;;-143.19;100.00;53775.09;4916641;29;20206;-67
2022/03/04 10:05:00;;;;;;;0.52;0.52;;;4.30;99.90;;;-143.19;100.00;53775.09;4931422;29;20245;-67
2022/03/04 10:07:41;;;;;;;0.80;0.80;;;4.40;99.90;;;-143.19;100.00;53775.09;4901190;29;20206;-67
2022/03/04 10:10:16;;;;;;;0.47;0.47;;;4.50;99.90;;;-143.19;100.00;53775.09;4900066;29;20246;-67